An Run Da 2 — BHNX — position and weather

sailwx.info

Track history (hours):
 
Tides and Currents Weather Stations Pressure Air Temp Water Temp Dewpoint Dewpoint Depression Visibility Wind Speed Wind Dir Waves Ship Positions

An Run Da 2

Last reported at 2016-Feb-10 12:26 UTC. Time now 2016-Feb-13 15:13 UTC.
Position N 29°42' E 122°20'.

Length 147 m; draft 5 m.

Type: Cargo ship. MMSI: 413360230.

Date/timePositionNaut miles runAvg speedWind from/ knotsBaromVisibWave heightAir tempDewpointWater temp
2016-Feb-10 12:26N 29°42' E 122°20'5 5.9
2016-Feb-10 11:33N 29°44' E 122°25'2412.2
2016-Feb-10 09:33N 30°06' E 122°36'66 8.1
2016-Feb-10 01:24N 31°05' E 122°01'1010.8
2016-Feb-10 00:29N 31°10' E 121°51'1313.4
2016-Feb-09 23:33N 31°20' E 121°41'1212.5
2016-Feb-09 22:33N 31°26' E 121°29'1010.5
2016-Feb-09 21:33N 31°33' E 121°20'1111.4
2016-Feb-09 20:34N 31°41' E 121°10'10 9.6
2016-Feb-09 19:33N 31°46' E 121°01'8 7.8
2016-Feb-09 18:33N 31°51' E 120°54'1010.2
2016-Feb-09 17:33N 32°00' E 120°48'1211.8
2016-Feb-09 16:32N 32°02' E 120°34'1111.4
2016-Feb-09 15:32N 31°59' E 120°21'1312.7
2016-Feb-09 14:32N 31°57' E 120°07'  
2016-Feb-04 06:30N 32°04' E 120°26'10 8.2
2016-Feb-04 05:20N 32°00' E 120°37'8 9.8
2016-Feb-04 04:33N 32°01' E 120°46'33 9.9
2016-Feb-04 01:15N 31°39' E 121°14'810.6
2016-Feb-04 00:31N 31°33' E 121°20'8 8.6
2016-Feb-03 23:33N 31°28' E 121°28'10 9.8
2016-Feb-03 22:32N 31°22' E 121°38'1110.5
2016-Feb-03 21:29N 31°17' E 121°49'48 3.4
2016-Feb-03 07:33N 30°34' E 122°12'11 8.5
2016-Feb-03 06:12N 30°27' E 122°01'21 7.0
2016-Feb-03 03:09N 30°06' E 121°53'4 7.3
2016-Feb-03 02:33N 30°03' E 121°56'8 7.7
2016-Feb-03 01:28N 29°56' E 122°02'3 0.8
2016-Feb-02 21:24N 29°54' E 122°05'2 0.3
2016-Feb-02 15:33N 29°55' E 122°05'8 0.3
2016-Feb-01 16:32N 29°55' E 122°14'5 4.9
2016-Feb-01 15:33N 29°50' E 122°13'9 9.1
2016-Feb-01 14:32N 29°43' E 122°20'9 9.0
2016-Feb-01 13:29N 29°33' E 122°20'  
Track history (hours):
 
Tides and Currents Weather Stations Pressure Air Temp Water Temp Dewpoint Dewpoint Depression Visibility Wind Speed Wind Dir Waves Ship Positions

An Run Da 2

Last reported at 2016-Feb-10 12:26 UTC. Time now 2016-Feb-13 15:13 UTC.
Position N 29°42' E 122°20'.

Length 147 m; draft 5 m.

Type: Cargo ship. MMSI: 413360230.

Date/timePositionNaut miles runAvg speedWind from/ knotsBaromVisibWave heightAir tempDewpointWater temp
2016-Feb-10 12:26N 29°42' E 122°20'5 5.9
2016-Feb-10 11:33N 29°44' E 122°25'2412.2
2016-Feb-10 09:33N 30°06' E 122°36'66 8.1
2016-Feb-10 01:24N 31°05' E 122°01'1010.8
2016-Feb-10 00:29N 31°10' E 121°51'1313.4
2016-Feb-09 23:33N 31°20' E 121°41'1212.5
2016-Feb-09 22:33N 31°26' E 121°29'1010.5
2016-Feb-09 21:33N 31°33' E 121°20'1111.4
2016-Feb-09 20:34N 31°41' E 121°10'10 9.6
2016-Feb-09 19:33N 31°46' E 121°01'8 7.8
2016-Feb-09 18:33N 31°51' E 120°54'1010.2
2016-Feb-09 17:33N 32°00' E 120°48'1211.8
2016-Feb-09 16:32N 32°02' E 120°34'1111.4
2016-Feb-09 15:32N 31°59' E 120°21'1312.7
2016-Feb-09 14:32N 31°57' E 120°07'  
2016-Feb-04 06:30N 32°04' E 120°26'10 8.2
2016-Feb-04 05:20N 32°00' E 120°37'8 9.8
2016-Feb-04 04:33N 32°01' E 120°46'33 9.9
2016-Feb-04 01:15N 31°39' E 121°14'810.6
2016-Feb-04 00:31N 31°33' E 121°20'8 8.6
2016-Feb-03 23:33N 31°28' E 121°28'10 9.8
2016-Feb-03 22:32N 31°22' E 121°38'1110.5
2016-Feb-03 21:29N 31°17' E 121°49'48 3.4
2016-Feb-03 07:33N 30°34' E 122°12'11 8.5
2016-Feb-03 06:12N 30°27' E 122°01'21 7.0
2016-Feb-03 03:09N 30°06' E 121°53'4 7.3
2016-Feb-03 02:33N 30°03' E 121°56'8 7.7
2016-Feb-03 01:28N 29°56' E 122°02'3 0.8
2016-Feb-02 21:24N 29°54' E 122°05'2 0.3
2016-Feb-02 15:33N 29°55' E 122°05'8 0.3
2016-Feb-01 16:32N 29°55' E 122°14'5 4.9
2016-Feb-01 15:33N 29°50' E 122°13'9 9.1
2016-Feb-01 14:32N 29°43' E 122°20'9 9.0
2016-Feb-01 13:29N 29°33' E 122°20'  

Dump ship's entire track history